Time;durP1;ratioP1;P1;durP2;ratioP2;P2;SDS_P1;SDS_P2;PMS_P1;PMS_P2;Temp;Humidity;BMP_temperature;BMP_pressure;BME280_temperature;BME280_humidity;BME280_pressure;Samples;Min_cycle;Max_cycle;Signal;HPM_P1;HPM_P2
2023/07/17 00:00:43;;;;;;;7.82;3.03;;;16.40;86.60;;;;;;5037678;28;20565;-64
2023/07/17 00:03:09;;;;;;;5.82;2.70;;;16.40;86.30;;;;;;5017256;28;20041;-65
2023/07/17 00:05:34;;;;;;;5.00;2.83;;;16.40;86.10;;;;;;5026878;28;20098;-63
2023/07/17 00:08:00;;;;;;;6.25;2.55;;;16.40;86.00;;;;;;5019928;28;20082;-64
2023/07/17 00:10:25;;;;;;;4.03;2.20;;;16.40;85.70;;;;;;5035899;28;20117;-65
2023/07/17 00:12:51;;;;;;;5.47;2.72;;;16.40;85.40;;;;;;5023142;28;20477;-63
2023/07/17 00:15:16;;;;;;;6.28;2.83;;;16.40;85.10;;;;;;5047813;28;20796;-63
2023/07/17 00:17:42;;;;;;;4.32;2.47;;;16.40;84.80;;;;;;5030247;28;20095;-64
2023/07/17 00:20:11;;;;;;;6.90;2.70;;;16.40;84.60;;;;;;5051854;28;20064;-65
2023/07/17 00:22:37;;;;;;;6.55;2.92;;;16.50;84.40;;;;;;5048722;28;20037;-65
2023/07/17 00:25:04;;;;;;;7.43;2.55;;;16.50;84.20;;;;;;5046604;28;20045;-64
2023/07/17 00:27:30;;;;;;;8.43;2.58;;;16.60;83.90;;;;;;5044062;28;20160;-65
2023/07/17 00:29:55;;;;;;;4.40;2.58;;;16.50;83.50;;;;;;5049299;28;20483;-63
2023/07/17 00:32:21;;;;;;;4.53;2.40;;;16.60;83.30;;;;;;5028838;28;20047;-63
2023/07/17 00:34:47;;;;;;;4.72;2.35;;;16.60;83.10;;;;;;5042438;28;20045;-64
2023/07/17 00:37:12;;;;;;;4.18;2.30;;;16.60;83.00;;;;;;5058947;28;20064;-64
2023/07/17 00:39:38;;;;;;;6.47;2.70;;;16.60;82.80;;;;;;5052620;28;20109;-64
2023/07/17 00:42:04;;;;;;;3.88;2.25;;;16.60;82.80;;;;;;5020165;28;20541;-63
2023/07/17 00:44:30;;;;;;;5.20;2.40;;;16.60;82.60;;;;;;5034818;28;20132;-63
2023/07/17 00:46:57;;;;;;;7.20;2.97;;;16.70;82.40;;;;;;5030216;28;20034;-64
2023/07/17 00:49:24;;;;;;;4.72;2.42;;;16.50;82.60;;;;;;5009814;28;20836;-64
2023/07/17 00:51:52;;;;;;;6.80;2.75;;;16.40;83.20;;;;;;5029669;28;20034;-65
2023/07/17 00:54:18;;;;;;;8.23;2.63;;;16.40;83.70;;;;;;5029273;28;20440;-63
2023/07/17 00:56:46;;;;;;;8.30;2.50;;;16.40;84.10;;;;;;5028219;28;20079;-63
2023/07/17 00:59:13;;;;;;;7.93;2.50;;;16.40;84.00;;;;;;5009752;28;20065;-65
2023/07/17 01:01:40;;;;;;;7.22;2.58;;;16.40;84.50;;;;;;5035654;28;20037;-63
2023/07/17 01:04:06;;;;;;;6.28;2.47;;;16.30;84.70;;;;;;5027972;28;20485;-63
2023/07/17 01:06:34;;;;;;;8.43;2.72;;;16.30;85.10;;;;;;5033804;28;20114;-63
2023/07/17 01:09:00;;;;;;;5.68;2.20;;;16.20;85.50;;;;;;5041064;28;20037;-65
2023/07/17 01:11:25;;;;;;;4.72;2.03;;;16.20;85.40;;;;;;5048544;28;20037;-65
2023/07/17 01:13:51;;;;;;;7.50;2.10;;;16.20;85.50;;;;;;5021557;28;20453;-63
2023/07/17 01:16:17;;;;;;;4.72;1.70;;;16.20;85.10;;;;;;5043463;28;20123;-64
2023/07/17 01:18:43;;;;;;;4.50;2.08;;;16.20;83.90;;;;;;5021162;28;22621;-63
2023/07/17 01:21:12;;;;;;;5.25;1.70;;;16.20;83.20;;;;;;5023087;28;20068;-63
2023/07/17 01:23:38;;;;;;;4.13;1.50;;;16.30;82.10;;;;;;5012062;28;20461;-63
2023/07/17 01:26:18;;;;;;;2.58;1.40;;;16.30;81.60;;;;;;5022017;28;20523;-65
2023/07/17 01:28:44;;;;;;;6.63;1.75;;;16.30;80.60;;;;;;5037259;28;20048;-63
2023/07/17 01:31:10;;;;;;;2.75;1.60;;;16.30;80.70;;;;;;5040392;28;20111;-65
2023/07/17 01:33:36;;;;;;;4.40;1.65;;;16.20;80.60;;;;;;5044449;28;20048;-65
2023/07/17 01:36:04;;;;;;;7.18;1.50;;;16.20;80.70;;;;;;5019327;28;20045;-64
2023/07/17 01:38:31;;;;;;;4.65;1.60;;;16.20;80.70;;;;;;5036397;28;20029;-65
2023/07/17 01:40:56;;;;;;;3.80;2.00;;;16.20;80.90;;;;;;5041239;28;20041;-64
2023/07/17 01:43:22;;;;;;;2.88;1.50;;;16.10;80.90;;;;;;5040546;28;20052;-65
2023/07/17 01:45:48;;;;;;;5.40;1.77;;;16.10;81.10;;;;;;5022557;28;20437;-63
2023/07/17 01:48:14;;;;;;;6.03;1.80;;;16.10;81.20;;;;;;5025249;28;20037;-63
2023/07/17 01:50:41;;;;;;;6.90;2.40;;;16.10;81.20;;;;;;5044503;28;20041;-65
2023/07/17 01:53:07;;;;;;;2.78;1.45;;;16.10;81.50;;;;;;5039178;28;20056;-65
2023/07/17 01:55:33;;;;;;;5.88;2.00;;;16.10;81.70;;;;;;5041165;28;20048;-63
2023/07/17 01:57:58;;;;;;;5.90;2.60;;;16.10;81.70;;;;;;5021053;28;20410;-66
2023/07/17 02:00:24;;;;;;;4.80;2.03;;;16.10;81.80;;;;;;5039016;28;20035;-64
2023/07/17 02:02:49;;;;;;;4.72;1.90;;;16.00;81.70;;;;;;5041249;28;20036;-65
2023/07/17 02:05:15;;;;;;;5.68;1.95;;;16.00;81.70;;;;;;5042358;28;20179;-63
2023/07/17 02:07:41;;;;;;;5.90;1.85;;;16.00;81.60;;;;;;5039208;28;20041;-65
2023/07/17 02:10:07;;;;;;;5.88;2.50;;;16.00;81.40;;;;;;5038730;28;20198;-64
2023/07/17 02:12:33;;;;;;;7.68;1.70;;;16.00;81.30;;;;;;5024787;28;20033;-64
2023/07/17 02:14:58;;;;;;;8.40;2.28;;;16.00;81.10;;;;;;5048699;28;20044;-64
2023/07/17 02:17:24;;;;;;;6.13;2.20;;;16.00;81.10;;;;;;5049667;28;20120;-63
2023/07/17 02:19:49;;;;;;;7.35;1.80;;;16.00;80.90;;;;;;5011123;28;20064;-63
2023/07/17 02:22:15;;;;;;;5.15;1.95;;;15.90;80.90;;;;;;5051971;28;20483;-63
2023/07/17 02:24:40;;;;;;;4.82;1.88;;;15.90;80.70;;;;;;5026965;28;20139;-63
2023/07/17 02:27:06;;;;;;;5.57;1.90;;;15.90;80.60;;;;;;5029235;28;20053;-63
2023/07/17 02:29:32;;;;;;;5.60;1.83;;;16.00;80.30;;;;;;5046972;28;20142;-63
2023/07/17 02:31:58;;;;;;;6.03;1.70;;;15.90;80.00;;;;;;5048190;28;20054;-63
2023/07/17 02:34:23;;;;;;;7.85;1.70;;;16.00;79.70;;;;;;5047961;28;20115;-64
2023/07/17 02:36:49;;;;;;;3.17;1.42;;;15.90;79.40;;;;;;5051940;28;20041;-63
2023/07/17 02:39:14;;;;;;;5.57;1.60;;;15.90;79.30;;;;;;5030649;28;20044;-64
2023/07/17 02:41:40;;;;;;;6.65;2.00;;;15.90;79.20;;;;;;5046154;28;20048;-63
2023/07/17 02:44:05;;;;;;;5.45;1.52;;;15.90;79.00;;;;;;5026341;28;20098;-63
2023/07/17 02:46:31;;;;;;;6.85;1.67;;;15.90;79.10;;;;;;5029295;28;20460;-64
2023/07/17 02:48:56;;;;;;;4.78;1.60;;;15.80;79.10;;;;;;5029042;28;20047;-63
2023/07/17 02:51:22;;;;;;;7.20;1.98;;;15.80;79.20;;;;;;5046621;28;20420;-63
2023/07/17 02:53:48;;;;;;;5.75;1.70;;;15.70;79.20;;;;;;5056971;28;20040;-63
2023/07/17 02:56:13;;;;;;;5.10;1.65;;;15.70;79.30;;;;;;5029826;28;20128;-65
2023/07/17 02:58:42;;;;;;;5.88;1.50;;;15.60;79.50;;;;;;5043378;28;20094;-63
2023/07/17 03:01:10;;;;;;;3.33;1.58;;;15.60;79.60;;;;;;5055901;28;20041;-64
2023/07/17 03:03:36;;;;;;;4.05;1.73;;;15.60;79.90;;;;;;5046539;28;20063;-64
2023/07/17 03:06:01;;;;;;;5.82;2.00;;;15.50;80.20;;;;;;5044692;28;20113;-63
2023/07/17 03:08:27;;;;;;;4.35;1.70;;;15.50;80.20;;;;;;5025723;28;20052;-63
2023/07/17 03:10:52;;;;;;;7.75;2.42;;;15.50;80.30;;;;;;5029929;28;20048;-63
2023/07/17 03:13:20;;;;;;;8.23;2.30;;;15.50;80.50;;;;;;5042646;28;20416;-62
2023/07/17 03:15:47;;;;;;;6.32;1.90;;;15.50;80.70;;;;;;5044583;28;20051;-63
2023/07/17 03:18:12;;;;;;;8.15;2.03;;;15.50;80.90;;;;;;5029511;28;20048;-64
2023/07/17 03:20:43;;;;;;;5.68;2.08;;;15.40;81.20;;;;;;5040391;28;20051;-65
2023/07/17 03:23:08;;;;;;;;;;;15.40;81.70;;;;;;5045993;28;20045;-63
2023/07/17 03:25:34;;;;;;;4.47;1.65;;;15.40;82.80;;;;;;5029654;28;19959;-63
2023/07/17 03:28:00;;;;;;;7.82;2.28;;;15.30;81.60;;;;;;5048216;28;20072;-63
2023/07/17 03:30:26;;;;;;;7.18;2.03;;;15.30;82.30;;;;;;5039549;28;20071;-63
2023/07/17 03:32:51;;;;;;;11.60;2.42;;;15.20;82.20;;;;;;5036539;28;20063;-63
2023/07/17 03:35:17;;;;;;;7.70;2.03;;;15.20;82.60;;;;;;5027559;28;20530;-64
2023/07/17 03:37:42;;;;;;;11.15;2.20;;;15.20;82.80;;;;;;5031975;28;20484;-63
2023/07/17 03:40:10;;;;;;;5.93;2.00;;;15.20;83.20;;;;;;5043695;28;20051;-63
2023/07/17 03:42:36;;;;;;;7.38;2.10;;;15.20;83.50;;;;;;5046161;28;20159;-65
2023/07/17 03:45:01;;;;;;;9.48;3.08;;;15.10;83.60;;;;;;5036563;28;20090;-64
2023/07/17 03:47:27;;;;;;;7.50;2.25;;;15.20;84.20;;;;;;5039325;28;20065;-64
2023/07/17 03:49:53;;;;;;;7.68;2.00;;;15.10;84.40;;;;;;5044870;28;20033;-62
2023/07/17 03:52:19;;;;;;;7.32;2.10;;;15.10;84.50;;;;;;5030343;28;20045;-63
2023/07/17 03:54:44;;;;;;;4.97;2.10;;;15.20;84.90;;;;;;5045915;28;20217;-63
2023/07/17 03:57:10;;;;;;;6.28;1.85;;;15.20;84.90;;;;;;5029404;28;20049;-64
2023/07/17 03:59:55;;;;;;;5.28;2.10;;;15.10;85.00;;;;;;5045161;28;20033;-63
2023/07/17 04:02:22;;;;;;;5.00;2.00;;;15.20;86.70;;;;;;5018691;28;20806;-65
2023/07/17 04:04:48;;;;;;;7.65;2.25;;;15.20;85.40;;;;;;5005102;28;20083;-64
2023/07/17 04:07:14;;;;;;;7.22;2.40;;;15.20;86.20;;;;;;5006187;28;20037;-64
2023/07/17 04:09:40;;;;;;;5.53;2.10;;;15.20;85.30;;;;;;5029437;28;20045;-63
2023/07/17 04:12:06;;;;;;;9.95;2.15;;;15.20;85.40;;;;;;5036707;28;20345;-64
2023/07/17 04:14:33;;;;;;;7.05;2.20;;;15.10;85.50;;;;;;5015294;28;20040;-64
2023/07/17 04:16:59;;;;;;;5.90;2.65;;;15.20;85.80;;;;;;5028260;28;20048;-64
2023/07/17 04:19:24;;;;;;;9.07;2.22;;;15.10;85.80;;;;;;5021685;28;20037;-63
2023/07/17 04:21:50;;;;;;;4.50;2.10;;;15.20;85.80;;;;;;5027101;28;20147;-65
2023/07/17 04:24:16;;;;;;;5.78;2.28;;;15.10;85.90;;;;;;5032267;28;20053;-63
2023/07/17 04:26:41;;;;;;;7.80;2.90;;;15.10;86.00;;;;;;5029595;28;20080;-63
2023/07/17 04:29:08;;;;;;;6.35;2.17;;;15.10;86.20;;;;;;5037374;28;20060;-64
2023/07/17 04:31:33;;;;;;;7.05;2.28;;;15.10;86.50;;;;;;5037596;28;20049;-64
2023/07/17 04:33:59;;;;;;;6.40;2.33;;;15.10;86.50;;;;;;5017724;28;20115;-64
2023/07/17 04:36:24;;;;;;;7.10;2.40;;;15.20;86.40;;;;;;5027720;28;20048;-63
2023/07/17 04:38:50;;;;;;;6.72;2.10;;;15.20;86.40;;;;;;5034472;28;20037;-64
2023/07/17 04:41:16;;;;;;;7.75;2.47;;;15.20;86.50;;;;;;5028077;28;20063;-62
2023/07/17 04:43:42;;;;;;;7.32;2.50;;;15.20;86.70;;;;;;5035083;28;20033;-64
2023/07/17 04:46:07;;;;;;;6.57;2.47;;;15.30;86.80;;;;;;5034323;28;20040;-65
2023/07/17 04:48:33;;;;;;;7.47;2.58;;;15.30;87.00;;;;;;5017242;28;20091;-63
2023/07/17 04:50:58;;;;;;;5.80;2.30;;;15.30;87.00;;;;;;5017816;28;20100;-63
2023/07/17 04:53:24;;;;;;;7.80;2.35;;;15.30;87.10;;;;;;5036947;28;20067;-64
2023/07/17 04:55:50;;;;;;;8.02;2.50;;;15.40;87.30;;;;;;5018453;28;20472;-64
2023/07/17 04:58:15;;;;;;;13.25;2.55;;;15.50;87.20;;;;;;5035789;28;20033;-65
2023/07/17 05:00:45;;;;;;;7.55;2.40;;;15.50;87.10;;;;;;5023596;28;20037;-62
2023/07/17 05:03:15;;;;;;;9.18;2.80;;;15.60;87.10;;;;;;5035039;28;20081;-62
2023/07/17 05:05:46;;;;;;;7.05;2.83;;;15.60;86.90;;;;;;5000323;28;20068;-64
2023/07/17 05:08:12;;;;;;;8.90;2.42;;;15.70;86.70;;;;;;5035516;28;20079;-63
2023/07/17 05:10:37;;;;;;;11.50;3.10;;;15.70;86.60;;;;;;5020965;28;20120;-64
2023/07/17 05:13:03;;;;;;;7.55;2.67;;;15.80;86.50;;;;;;5024751;28;20125;-63
2023/07/17 05:15:28;;;;;;;9.05;2.47;;;15.90;86.10;;;;;;5034432;28;20045;-62
2023/07/17 05:17:54;;;;;;;5.20;2.30;;;16.00;85.90;;;;;;5036406;28;20360;-65
2023/07/17 05:20:19;;;;;;;5.30;2.40;;;16.10;85.70;;;;;;5040090;28;20045;-63
2023/07/17 05:22:45;;;;;;;9.25;2.80;;;16.20;86.20;;;;;;5014618;28;20051;-64
2023/07/17 05:25:13;;;;;;;8.27;2.40;;;16.30;85.40;;;;;;5038057;28;20677;-65
2023/07/17 05:27:39;;;;;;;8.60;2.83;;;16.40;85.40;;;;;;5038183;28;20115;-63
2023/07/17 05:30:06;;;;;;;6.78;2.47;;;16.50;85.30;;;;;;5018845;28;20486;-64
2023/07/17 05:32:32;;;;;;;7.20;2.45;;;16.60;84.60;;;;;;5033739;28;20425;-63
2023/07/17 05:34:58;;;;;;;9.25;2.88;;;16.60;84.50;;;;;;5036989;28;20091;-63
2023/07/17 05:37:24;;;;;;;5.90;2.45;;;16.70;84.30;;;;;;5024574;28;20072;-64
2023/07/17 05:39:49;;;;;;;7.90;2.50;;;16.80;84.00;;;;;;5036688;28;20040;-63
2023/07/17 05:42:15;;;;;;;9.00;2.80;;;16.90;84.00;;;;;;5025802;28;20049;-63
2023/07/17 05:44:40;;;;;;;10.05;2.97;;;17.10;82.00;;;;;;5042594;28;20051;-63
2023/07/17 05:47:06;;;;;;;7.63;2.45;;;17.20;81.80;;;;;;5019529;28;20578;-64
2023/07/17 05:49:32;;;;;;;9.55;2.80;;;17.30;81.90;;;;;;5024189;28;20063;-64
2023/07/17 05:51:58;;;;;;;11.38;3.05;;;17.40;81.70;;;;;;5051717;28;20041;-63
2023/07/17 05:54:23;;;;;;;9.98;2.72;;;17.50;80.60;;;;;;5030478;28;20435;-64
2023/07/17 05:56:49;;;;;;;11.18;2.80;;;17.50;80.50;;;;;;5046851;28;20033;-63
2023/07/17 05:59:14;;;;;;;9.73;2.88;;;17.60;80.90;;;;;;5031061;28;20132;-64
2023/07/17 06:01:40;;;;;;;12.13;2.88;;;17.70;79.60;;;;;;5020755;28;20112;-63
2023/07/17 06:04:06;;;;;;;13.13;2.90;;;17.90;79.00;;;;;;5034390;28;20042;-63
2023/07/17 06:06:32;;;;;;;5.90;2.22;;;17.80;78.50;;;;;;5037896;28;20051;-63
2023/07/17 06:09:01;;;;;;;8.98;2.72;;;17.70;78.00;;;;;;5023493;28;20029;-64
2023/07/17 06:11:26;;;;;;;10.38;3.00;;;17.70;77.50;;;;;;5034982;28;20041;-65
2023/07/17 06:13:52;;;;;;;8.52;2.75;;;17.60;77.60;;;;;;5021871;28;20600;-63
2023/07/17 06:16:18;;;;;;;9.10;2.95;;;17.60;77.30;;;;;;5033842;28;20091;-63
2023/07/17 06:18:43;;;;;;;8.45;2.50;;;17.60;77.30;;;;;;5022148;28;20378;-64
2023/07/17 06:21:09;;;;;;;9.60;3.03;;;17.90;77.00;;;;;;5044553;28;20045;-63
2023/07/17 06:23:34;;;;;;;10.32;2.97;;;18.00;76.70;;;;;;5038153;28;20044;-62
2023/07/17 06:26:00;;;;;;;7.95;2.70;;;18.00;76.40;;;;;;5038909;28;20151;-63
2023/07/17 06:28:29;;;;;;;11.63;3.17;;;18.00;76.20;;;;;;5037369;28;20404;-65
2023/07/17 06:30:54;;;;;;;9.48;3.50;;;18.00;76.00;;;;;;5013769;28;20048;-63
2023/07/17 06:33:22;;;;;;;9.32;3.15;;;17.90;75.40;;;;;;5040138;28;20059;-63
2023/07/17 06:35:48;;;;;;;10.50;2.95;;;17.90;75.90;;;;;;5036973;28;20033;-64
2023/07/17 06:38:13;;;;;;;11.25;3.10;;;18.10;76.10;;;;;;5017020;28;20056;-64
2023/07/17 06:40:39;;;;;;;8.57;3.70;;;18.10;76.00;;;;;;5036040;28;20036;-65
2023/07/17 06:43:04;;;;;;;9.48;3.15;;;18.50;74.80;;;;;;5032834;28;20448;-64
2023/07/17 06:45:30;;;;;;;8.63;2.80;;;18.80;75.10;;;;;;5034768;28;20048;-63
2023/07/17 06:47:55;;;;;;;7.22;3.08;;;18.80;74.20;;;;;;5031926;28;20471;-63
2023/07/17 06:50:21;;;;;;;9.68;3.70;;;18.90;73.90;;;;;;5044249;28;20033;-63
2023/07/17 06:52:47;;;;;;;9.65;2.83;;;18.80;72.40;;;;;;5039741;28;20036;-65
2023/07/17 06:55:12;;;;;;;6.97;3.17;;;18.80;72.80;;;;;;5035511;28;20049;-65
2023/07/17 06:57:38;;;;;;;8.65;3.60;;;18.80;72.60;;;;;;5024747;28;20037;-65
2023/07/17 07:00:08;;;;;;;9.35;2.88;;;18.80;72.50;;;;;;5036945;28;20040;-66
2023/07/17 07:02:35;;;;;;;9.05;3.20;;;19.00;72.50;;;;;;5034333;28;20483;-65
2023/07/17 07:05:01;;;;;;;10.45;3.53;;;19.00;71.30;;;;;;5025960;28;20091;-64
2023/07/17 07:07:26;;;;;;;9.07;3.40;;;19.30;71.90;;;;;;5014188;28;20063;-64
2023/07/17 07:09:52;;;;;;;9.65;3.10;;;19.50;69.30;;;;;;5035348;28;20450;-65
2023/07/17 07:12:17;;;;;;;9.90;3.50;;;19.60;70.90;;;;;;5037878;28;20112;-64
2023/07/17 07:14:43;;;;;;;10.73;3.50;;;19.80;70.30;;;;;;5028787;28;20045;-64
2023/07/17 07:17:09;;;;;;;9.57;2.92;;;19.90;69.00;;;;;;5011310;28;20155;-63
2023/07/17 07:19:35;;;;;;;8.55;3.00;;;19.90;69.40;;;;;;5029757;28;20053;-65
2023/07/17 07:22:00;;;;;;;8.45;3.15;;;20.20;68.20;;;;;;5045059;28;20036;-65
2023/07/17 07:24:26;;;;;;;7.07;2.97;;;20.50;68.30;;;;;;5021177;28;20083;-63
2023/07/17 07:26:52;;;;;;;8.48;3.60;;;20.50;68.20;;;;;;5023089;28;20049;-65
2023/07/17 07:29:17;;;;;;;7.15;3.47;;;20.40;67.60;;;;;;5033026;28;20056;-63
2023/07/17 07:31:43;;;;;;;9.15;3.10;;;20.40;66.00;;;;;;5031129;28;20041;-65
2023/07/17 07:34:08;;;;;;;10.45;2.95;;;20.60;66.30;;;;;;5015407;28;20045;-64
2023/07/17 07:36:34;;;;;;;8.50;3.42;;;20.60;64.90;;;;;;5034609;28;20041;-63
2023/07/17 07:38:59;;;;;;;8.02;3.92;;;20.40;64.70;;;;;;5021487;28;20041;-64
2023/07/17 07:41:25;;;;;;;6.88;3.25;;;20.30;65.20;;;;;;5033611;28;20052;-64
2023/07/17 07:43:51;;;;;;;9.88;4.00;;;20.40;65.00;;;;;;5026209;28;20633;-64
2023/07/17 07:46:16;;;;;;;7.70;3.40;;;20.30;64.90;;;;;;5039364;28;20045;-63
2023/07/17 07:48:42;;;;;;;11.07;3.50;;;20.40;64.80;;;;;;5011321;28;20476;-64
2023/07/17 07:51:08;;;;;;;8.95;3.33;;;20.20;64.50;;;;;;5036798;28;20084;-63
2023/07/17 07:53:33;;;;;;;12.15;4.03;;;20.60;64.50;;;;;;5028436;28;20115;-64
2023/07/17 07:56:00;;;;;;;9.52;3.90;;;21.00;64.20;;;;;;5043951;28;20055;-63
2023/07/17 07:58:26;;;;;;;8.77;3.40;;;21.40;63.80;;;;;;5045072;28;20105;-64
2023/07/17 08:00:53;;;;;;;8.45;3.75;;;21.40;63.00;;;;;;5032086;28;20400;-64
2023/07/17 08:03:18;;;;;;;9.90;3.60;;;21.90;62.40;;;;;;5045789;28;20057;-66
2023/07/17 08:05:44;;;;;;;9.60;3.72;;;22.00;61.60;;;;;;5038577;28;20345;-65
2023/07/17 08:08:09;;;;;;;8.88;3.22;;;21.80;60.70;;;;;;5028268;28;20115;-64
2023/07/17 08:10:37;;;;;;;5.97;3.05;;;21.20;60.70;;;;;;5039962;28;20785;-65
2023/07/17 08:13:03;;;;;;;8.23;3.22;;;21.10;60.80;;;;;;5038335;28;20476;-65
2023/07/17 08:15:29;;;;;;;9.82;3.28;;;20.70;61.30;;;;;;5046210;28;20045;-65
2023/07/17 08:17:54;;;;;;;7.50;3.42;;;21.10;60.70;;;;;;5023702;28;20433;-64
2023/07/17 08:20:20;;;;;;;7.30;3.38;;;21.20;60.10;;;;;;5045830;28;20432;-64
2023/07/17 08:22:46;;;;;;;9.60;3.13;;;21.30;60.10;;;;;;5026425;28;20036;-64
2023/07/17 08:25:12;;;;;;;9.20;3.00;;;21.10;59.90;;;;;;5028243;28;20123;-63
2023/07/17 08:27:37;;;;;;;7.72;3.45;;;20.80;59.40;;;;;;5010478;28;20749;-65
2023/07/17 08:30:04;;;;;;;8.25;3.65;;;20.50;60.20;;;;;;5046608;28;20044;-66
2023/07/17 08:32:30;;;;;;;7.18;2.92;;;20.30;60.80;;;;;;5026312;28;20421;-65
2023/07/17 08:34:55;;;;;;;8.77;3.00;;;20.10;61.10;;;;;;5020284;28;20081;-64
2023/07/17 08:37:21;;;;;;;8.82;3.40;;;20.00;61.40;;;;;;5038809;28;20056;-65
2023/07/17 08:39:47;;;;;;;7.70;3.25;;;19.90;61.70;;;;;;5029077;28;20053;-65
2023/07/17 08:42:13;;;;;;;9.93;3.47;;;18.80;64.00;;;;;;5045607;28;20048;-63
2023/07/17 08:44:39;;;;;;;15.57;4.20;;;17.50;70.20;;;;;;5035599;28;20439;-63
2023/07/17 08:47:07;;;;;;;8.35;3.55;;;16.40;78.60;;;;;;5045358;28;20527;-66
2023/07/17 08:49:34;;;;;;;8.52;3.50;;;15.30;91.70;;;;;;5026539;28;20480;-65
2023/07/17 08:52:01;;;;;;;10.10;3.13;;;15.30;96.40;;;;;;5029162;28;20041;-66
2023/07/17 08:54:28;;;;;;;7.63;3.35;;;15.20;98.60;;;;;;5027591;28;20064;-65
2023/07/17 08:56:55;;;;;;;9.88;3.50;;;15.00;99.90;;;;;;5036211;28;20044;-66
2023/07/17 08:59:21;;;;;;;9.15;3.85;;;14.90;99.90;;;;;;5033678;28;20050;-67
2023/07/17 09:01:49;;;;;;;9.30;3.80;;;15.20;99.90;;;;;;5027870;28;20041;-64
2023/07/17 09:04:15;;;;;;;9.73;3.78;;;15.40;99.90;;;;;;5014004;28;20037;-66
2023/07/17 09:06:40;;;;;;;11.05;3.90;;;15.90;99.90;;;;;;5033184;28;20033;-64
2023/07/17 09:09:09;;;;;;;9.35;3.92;;;15.80;99.90;;;;;;5042252;28;20036;-65
2023/07/17 09:11:35;;;;;;;10.70;3.60;;;16.00;99.90;;;;;;5021652;28;20069;-65
2023/07/17 09:14:00;;;;;;;13.18;4.30;;;15.90;99.90;;;;;;5015148;28;20061;-64
2023/07/17 09:16:26;;;;;;;10.32;4.03;;;15.50;99.90;;;;;;5038241;28;20083;-66
2023/07/17 09:18:53;;;;;;;11.98;4.03;;;15.80;99.90;;;;;;5014388;28;20415;-64
2023/07/17 09:21:24;;;;;;;12.68;3.72;;;15.70;99.90;;;;;;5017706;28;20048;-66
2023/07/17 09:23:53;;;;;;;11.65;4.10;;;15.90;99.90;;;;;;5019601;28;20072;-64
2023/07/17 09:26:21;;;;;;;9.18;4.40;;;15.90;99.90;;;;;;5039967;28;20129;-66
2023/07/17 09:28:57;;;;;;;11.02;4.60;;;16.00;99.90;;;;;;5022731;28;20040;-64
2023/07/17 09:31:30;;;;;;;13.90;4.40;;;16.40;99.90;;;;;;5036724;28;20053;-66
2023/07/17 09:34:13;;;;;;;10.38;4.47;;;16.90;99.90;;;;;;5007549;28;20038;-66
2023/07/17 09:36:38;;;;;;;13.27;5.35;;;17.90;99.90;;;;;;5018931;28;20391;-66
2023/07/17 09:39:07;;;;;;;10.07;4.72;;;18.50;99.90;;;;;;5040406;28;20041;-67
2023/07/17 09:41:33;;;;;;;9.23;4.40;;;19.00;99.90;;;;;;5044035;28;20465;-67
2023/07/17 09:44:00;;;;;;;9.48;3.53;;;19.50;99.90;;;;;;5039586;28;20060;-67
2023/07/17 09:46:26;;;;;;;13.90;4.28;;;19.80;99.90;;;;;;5035082;28;20041;-67
2023/07/17 09:48:53;;;;;;;10.27;3.30;;;19.00;99.90;;;;;;5037204;28;20051;-66
2023/07/17 09:51:20;;;;;;;8.93;3.03;;;18.40;99.90;;;;;;5020339;28;20515;-67
2023/07/17 09:53:46;;;;;;;8.10;3.90;;;17.90;99.90;;;;;;5042337;28;20087;-66
2023/07/17 09:56:15;;;;;;;8.45;3.20;;;17.40;99.90;;;;;;5039051;28;20037;-67
2023/07/17 09:58:48;;;;;;;8.20;3.38;;;17.00;99.90;;;;;;5018614;28;20135;-67
2023/07/17 10:01:25;;;;;;;13.73;3.55;;;17.30;99.90;;;;;;5017181;28;20041;-66
2023/07/17 10:03:51;;;;;;;7.57;2.97;;;18.00;99.90;;;;;;5036922;28;20087;-68
2023/07/17 10:06:19;;;;;;;7.35;2.95;;;19.10;99.90;;;;;;5041697;28;20749;-67
2023/07/17 10:08:50;;;;;;;7.50;2.80;;;19.80;99.90;;;;;;5022004;28;20051;-66
2023/07/17 10:11:16;;;;;;;7.78;2.83;;;20.40;99.10;;;;;;5025955;28;20128;-66
2023/07/17 10:13:47;;;;;;;6.55;2.33;;;20.80;96.10;;;;;;5032309;28;20033;-66
2023/07/17 10:16:19;;;;;;;6.07;2.22;;;21.00;97.00;;;;;;5026574;28;20103;-66
2023/07/17 10:18:50;;;;;;;6.63;2.65;;;21.60;99.00;;;;;;5050698;28;20520;-66
2023/07/17 10:21:17;;;;;;;4.57;2.50;;;21.30;92.10;;;;;;5028161;28;20037;-68
2023/07/17 10:23:44;;;;;;;6.85;2.50;;;21.80;91.50;;;;;;5033071;28;20128;-63
2023/07/17 10:26:12;;;;;;;5.28;2.13;;;20.60;90.00;;;;;;5046559;28;20053;-64
2023/07/17 10:28:39;;;;;;;4.20;2.13;;;20.30;88.80;;;;;;5033290;28;20076;-65
2023/07/17 10:31:18;;;;;;;6.10;2.30;;;20.20;83.40;;;;;;5027871;28;20052;-65
2023/07/17 10:33:50;;;;;;;4.55;2.22;;;21.00;80.10;;;;;;5049050;28;20450;-66
2023/07/17 10:36:16;;;;;;;6.10;2.13;;;22.10;74.80;;;;;;5029444;28;20156;-65
2023/07/17 10:38:47;;;;;;;5.47;2.58;;;22.90;71.30;;;;;;5034427;28;20131;-64
2023/07/17 10:41:12;;;;;;;7.53;2.72;;;23.50;68.20;;;;;;5045954;28;20055;-65
2023/07/17 10:43:56;;;;;;;5.03;2.55;;;24.10;66.10;;;;;;5043798;28;20231;-63
2023/07/17 10:46:26;;;;;;;6.55;2.70;;;24.80;56.20;;;;;;5044020;28;20076;-64
2023/07/17 10:48:52;;;;;;;4.53;2.40;;;24.80;60.80;;;;;;5039028;28;20102;-65
2023/07/17 10:51:18;;;;;;;5.72;2.10;;;25.40;60.30;;;;;;5044021;28;20043;-65
2023/07/17 10:53:44;;;;;;;5.63;2.33;;;26.60;58.30;;;;;;5040156;28;20036;-65
2023/07/17 10:56:09;;;;;;;5.28;2.30;;;26.30;55.10;;;;;;5036397;28;20048;-65
2023/07/17 10:58:35;;;;;;;5.13;1.98;;;26.30;51.60;;;;;;5044687;28;20118;-64
2023/07/17 11:01:07;;;;;;;4.65;1.85;;;26.30;51.20;;;;;;5017432;28;20090;-64
2023/07/17 11:03:32;;;;;;;4.53;2.03;;;25.60;45.30;;;;;;5047796;28;20037;-64
2023/07/17 11:05:58;;;;;;;6.65;2.00;;;25.40;51.10;;;;;;5051342;28;20048;-66
2023/07/17 11:08:26;;;;;;;2.97;1.58;;;24.50;52.60;;;;;;5051281;28;20068;-65
2023/07/17 11:10:52;;;;;;;3.72;1.90;;;24.00;51.70;;;;;;5047369;28;20176;-64
2023/07/17 11:13:18;;;;;;;4.70;2.00;;;23.40;54.20;;;;;;5038112;28;20145;-64
2023/07/17 11:15:44;;;;;;;4.43;2.33;;;23.00;54.60;;;;;;5047455;28;20045;-65
2023/07/17 11:18:10;;;;;;;4.82;2.00;;;22.90;55.00;;;;;;5046689;28;20091;-65
2023/07/17 11:20:36;;;;;;;4.13;1.90;;;23.00;55.00;;;;;;5031186;28;20041;-63
2023/07/17 11:23:03;;;;;;;7.30;2.20;;;23.00;55.20;;;;;;5046914;28;20063;-63
2023/07/17 11:25:31;;;;;;;4.05;1.95;;;22.70;55.20;;;;;;5030498;28;20536;-64
2023/07/17 11:27:59;;;;;;;5.85;2.40;;;22.80;54.30;;;;;;5011953;28;20059;-63
2023/07/17 11:30:34;;;;;;;5.15;1.98;;;22.70;54.40;;;;;;5010036;28;20178;-64
2023/07/17 11:33:06;;;;;;;3.70;1.77;;;22.60;50.40;;;;;;5043740;28;20361;-63
2023/07/17 11:35:45;;;;;;;4.38;2.10;;;22.60;53.40;;;;;;5046714;28;20119;-65
2023/07/17 11:38:18;;;;;;;4.97;2.33;;;22.70;54.80;;;;;;5030230;28;20041;-63
2023/07/17 11:40:57;;;;;;;5.15;1.95;;;22.80;53.70;;;;;;5050648;28;20041;-65
2023/07/17 11:43:35;;;;;;;6.05;1.80;;;22.90;54.30;;;;;;5019032;28;20093;-63
2023/07/17 11:46:02;;;;;;;5.68;2.08;;;23.00;52.90;;;;;;5047893;28;20052;-65
2023/07/17 11:48:41;;;;;;;6.80;1.98;;;23.00;53.10;;;;;;5042996;28;20036;-63
2023/07/17 11:51:07;;;;;;;4.55;1.90;;;23.20;51.30;;;;;;5029264;28;20647;-65
2023/07/17 11:53:35;;;;;;;4.03;2.05;;;23.20;51.50;;;;;;5030672;28;20079;-64
2023/07/17 11:56:01;;;;;;;3.88;1.60;;;23.30;51.10;;;;;;5046801;28;20044;-64
2023/07/17 11:58:30;;;;;;;3.80;1.95;;;23.30;51.40;;;;;;5029332;28;20148;-63
2023/07/17 12:00:56;;;;;;;3.03;1.63;;;23.00;51.90;;;;;;5028206;28;20055;-65
2023/07/17 12:03:23;;;;;;;7.53;2.60;;;22.90;52.00;;;;;;5026266;28;20053;-64
2023/07/17 12:05:48;;;;;;;4.78;1.88;;;22.90;52.90;;;;;;5030919;28;20049;-63
2023/07/17 12:08:14;;;;;;;3.67;1.83;;;22.80;52.50;;;;;;5044367;28;20103;-65
2023/07/17 12:10:40;;;;;;;7.30;1.90;;;22.40;52.50;;;;;;5030199;28;20048;-64
2023/07/17 12:13:06;;;;;;;3.65;1.65;;;22.10;52.20;;;;;;5028033;28;20037;-63
2023/07/17 12:15:33;;;;;;;5.18;1.90;;;21.70;53.80;;;;;;5029060;28;20041;-65
2023/07/17 12:17:58;;;;;;;5.53;1.90;;;21.70;54.80;;;;;;5028244;28;20045;-64
2023/07/17 12:20:25;;;;;;;5.40;1.65;;;21.40;55.40;;;;;;5043911;28;20040;-64
2023/07/17 12:22:52;;;;;;;2.92;1.80;;;21.30;57.10;;;;;;5028840;28;20388;-63
2023/07/17 12:25:18;;;;;;;4.55;1.75;;;21.30;57.80;;;;;;5027445;28;20045;-64
2023/07/17 12:27:45;;;;;;;5.40;2.03;;;21.70;57.10;;;;;;5046670;28;20132;-65
2023/07/17 12:30:11;;;;;;;4.15;1.65;;;22.20;54.90;;;;;;5045502;28;20067;-64
2023/07/17 12:32:38;;;;;;;4.53;1.60;;;22.40;54.00;;;;;;5025975;28;20106;-64
2023/07/17 12:35:07;;;;;;;3.10;1.65;;;23.70;52.50;;;;;;5047103;28;20036;-63
2023/07/17 12:37:33;;;;;;;8.65;2.38;;;24.90;50.40;;;;;;5045595;28;20046;-64
2023/07/17 12:39:59;;;;;;;3.83;1.58;;;24.80;49.20;;;;;;5047829;28;20127;-65
2023/07/17 12:42:25;;;;;;;2.53;1.45;;;24.30;46.00;;;;;;5019885;28;20156;-65